createdAt,value
2023-05-23T00:01:59.069Z,99.90
2023-05-23T00:04:32.169Z,99.90
2023-05-23T00:07:01.348Z,99.90
2023-05-23T00:09:33.218Z,99.90
2023-05-23T00:12:05.599Z,99.90
2023-05-23T00:14:46.459Z,99.90
2023-05-23T00:17:25.164Z,99.90
2023-05-23T00:19:58.162Z,99.90
2023-05-23T00:22:27.296Z,99.90
2023-05-23T00:25:02.419Z,99.90
2023-05-23T00:27:41.586Z,99.90
2023-05-23T00:30:12.844Z,99.90
2023-05-23T00:32:44.963Z,99.90
2023-05-23T00:35:15.413Z,99.90
2023-05-23T00:37:50.681Z,99.90
2023-05-23T00:40:20.159Z,99.90
2023-05-23T00:42:49.883Z,99.90
2023-05-23T00:45:23.699Z,99.90
2023-05-23T00:47:53.068Z,99.90
2023-05-23T00:50:29.914Z,99.90
2023-05-23T00:53:02.289Z,99.90
2023-05-23T00:55:32.022Z,99.90
2023-05-23T00:58:10.768Z,99.90
2023-05-23T01:00:41.534Z,99.90
2023-05-23T01:03:26.117Z,99.90
2023-05-23T01:05:55.453Z,99.90
2023-05-23T01:08:24.471Z,99.90
2023-05-23T01:10:56.529Z,99.90
2023-05-23T01:13:36.265Z,99.90
2023-05-23T01:16:12.018Z,99.90
2023-05-23T01:18:54.987Z,99.90
2023-05-23T01:21:26.204Z,99.90
2023-05-23T01:24:38.008Z,99.90
2023-05-23T01:27:17.969Z,99.90
2023-05-23T01:29:56.697Z,99.90
2023-05-23T01:32:27.423Z,99.90
2023-05-23T01:34:56.584Z,99.90
2023-05-23T01:37:25.531Z,99.90
2023-05-23T01:39:57.512Z,99.90
2023-05-23T01:42:29.727Z,99.90
2023-05-23T01:45:00.172Z,99.90
2023-05-23T01:47:32.223Z,99.90
2023-05-23T01:50:04.943Z,99.90
2023-05-23T01:52:35.394Z,99.90
2023-05-23T01:55:12.460Z,99.90
2023-05-23T01:57:56.801Z,99.90
2023-05-23T02:00:27.498Z,99.90
2023-05-23T02:02:57.073Z,99.90
2023-05-23T02:05:29.302Z,99.90
2023-05-23T02:08:05.548Z,99.90
2023-05-23T02:10:46.536Z,99.90
2023-05-23T02:13:23.609Z,99.90
2023-05-23T02:15:53.767Z,99.90
2023-05-23T02:18:22.723Z,99.90
2023-05-23T02:20:52.925Z,99.90
2023-05-23T02:23:21.701Z,99.90
2023-05-23T02:25:50.383Z,99.90
2023-05-23T02:28:19.034Z,99.90
2023-05-23T02:30:52.430Z,99.90
2023-05-23T02:33:24.293Z,99.90
2023-05-23T02:35:53.385Z,99.90
2023-05-23T02:38:27.325Z,99.90
2023-05-23T02:41:03.333Z,99.90
2023-05-23T02:43:38.712Z,99.90
2023-05-23T02:46:09.503Z,99.90
2023-05-23T02:48:38.927Z,99.90
2023-05-23T02:51:11.108Z,99.90
2023-05-23T02:53:40.818Z,99.90
2023-05-23T02:56:10.688Z,99.90
2023-05-23T02:58:40.252Z,99.90
2023-05-23T03:01:14.181Z,99.90
2023-05-23T03:03:45.147Z,99.90
2023-05-23T03:06:17.663Z,99.90
2023-05-23T03:08:47.083Z,99.90
2023-05-23T03:11:16.847Z,99.90
2023-05-23T03:13:45.517Z,99.90
2023-05-23T03:16:17.209Z,99.90
2023-05-23T03:18:46.088Z,99.90
2023-05-23T03:21:14.979Z,99.90
2023-05-23T03:23:44.152Z,99.90
2023-05-23T03:26:13.277Z,99.90
2023-05-23T03:28:42.016Z,99.90
2023-05-23T03:31:10.675Z,99.90
2023-05-23T03:33:40.885Z,99.90
2023-05-23T03:36:09.989Z,99.90
2023-05-23T03:38:38.659Z,99.90
2023-05-23T03:41:07.526Z,99.90
2023-05-23T03:43:36.227Z,99.90
2023-05-23T03:46:05.023Z,99.90
2023-05-23T03:48:33.818Z,99.90
2023-05-23T03:51:04.185Z,99.90
2023-05-23T03:53:33.936Z,99.90
2023-05-23T03:56:03.892Z,99.90
2023-05-23T03:58:32.602Z,99.90
2023-05-23T04:01:02.287Z,99.90
2023-05-23T04:03:34.071Z,99.90
2023-05-23T04:06:04.331Z,99.90
2023-05-23T04:08:34.201Z,99.90
2023-05-23T04:11:03.327Z,99.90
2023-05-23T04:13:32.468Z,99.90
2023-05-23T04:16:05.956Z,99.90
2023-05-23T04:18:34.846Z,99.90
2023-05-23T04:21:05.270Z,99.90
2023-05-23T04:23:33.868Z,95.80
2023-05-23T04:26:02.576Z,92.20
2023-05-23T04:28:31.661Z,90.00
2023-05-23T04:31:00.327Z,85.50
2023-05-23T04:33:30.771Z,82.30
2023-05-23T04:35:59.443Z,80.20
2023-05-23T04:38:29.868Z,78.80
2023-05-23T04:40:58.884Z,77.10
2023-05-23T04:43:29.580Z,76.50
2023-05-23T04:45:58.501Z,78.20
2023-05-23T04:48:27.859Z,80.90
2023-05-23T04:50:56.542Z,83.30
2023-05-23T04:53:25.102Z,88.00
2023-05-23T04:55:55.371Z,91.00
2023-05-23T04:58:24.123Z,93.10
2023-05-23T05:00:52.882Z,94.30
2023-05-23T05:03:22.039Z,94.90
2023-05-23T05:05:50.898Z,95.80
2023-05-23T05:08:21.039Z,97.10
2023-05-23T05:10:49.937Z,98.50
2023-05-23T05:13:19.994Z,99.90
2023-05-23T05:15:53.137Z,99.90
2023-05-23T05:18:21.796Z,99.90
2023-05-23T05:20:50.529Z,99.90
2023-05-23T05:23:19.268Z,99.90
2023-05-23T05:25:48.131Z,99.90
2023-05-23T05:28:16.831Z,99.90
2023-05-23T05:30:46.855Z,99.90
2023-05-23T05:33:15.834Z,99.90
2023-05-23T05:35:44.604Z,99.90
2023-05-23T05:38:13.750Z,99.90
2023-05-23T05:40:42.685Z,99.90
2023-05-23T05:43:11.570Z,99.90
2023-05-23T05:45:40.313Z,99.90
2023-05-23T05:48:10.535Z,99.90
2023-05-23T05:50:45.503Z,99.90
2023-05-23T05:53:14.904Z,99.90
2023-05-23T05:55:43.514Z,99.90
2023-05-23T05:58:12.185Z,99.90
2023-05-23T06:00:44.003Z,99.90
2023-05-23T06:03:14.590Z,99.90
2023-05-23T06:05:43.533Z,99.90
2023-05-23T06:08:12.220Z,99.90
2023-05-23T06:10:40.998Z,99.90
2023-05-23T06:13:10.151Z,99.90
2023-05-23T06:15:39.340Z,99.90
2023-05-23T06:18:08.553Z,99.70
2023-05-23T06:20:38.839Z,99.90
2023-05-23T06:23:09.012Z,99.90
2023-05-23T06:25:37.732Z,99.90
2023-05-23T06:28:06.694Z,99.90
2023-05-23T06:30:37.601Z,99.90
2023-05-23T06:33:06.473Z,99.90
2023-05-23T06:35:35.193Z,99.90
2023-05-23T06:38:05.418Z,99.90
2023-05-23T06:40:34.050Z,99.90
2023-05-23T06:43:02.743Z,98.90
2023-05-23T06:45:31.444Z,96.30
2023-05-23T06:48:01.494Z,96.00
2023-05-23T06:50:30.234Z,94.80
2023-05-23T06:52:58.845Z,96.50
2023-05-23T06:55:29.408Z,94.30
2023-05-23T06:57:58.004Z,93.90
2023-05-23T07:00:26.707Z,92.90
2023-05-23T07:02:55.473Z,92.30
2023-05-23T07:05:24.162Z,92.20
2023-05-23T07:07:52.810Z,93.40
2023-05-23T07:10:21.555Z,93.20
2023-05-23T07:12:51.751Z,92.60
2023-05-23T07:15:20.355Z,90.70
2023-05-23T07:17:49.090Z,91.10
2023-05-23T07:20:17.893Z,90.30
2023-05-23T07:22:46.528Z,89.40
2023-05-23T07:25:15.227Z,87.40
2023-05-23T07:27:43.847Z,90.10
2023-05-23T07:30:14.610Z,87.00
2023-05-23T07:32:43.387Z,85.00
2023-05-23T07:35:12.074Z,86.90
2023-05-23T07:37:40.762Z,85.60
2023-05-23T07:40:10.691Z,84.40
2023-05-23T07:42:39.350Z,86.50
2023-05-23T07:45:09.358Z,85.00
2023-05-23T07:47:39.761Z,82.50
2023-05-23T07:50:10.104Z,86.00
2023-05-23T07:52:39.348Z,87.10
2023-05-23T07:55:09.056Z,89.00
2023-05-23T07:57:37.761Z,85.10
2023-05-23T08:00:07.421Z,83.90
2023-05-23T08:02:36.075Z,84.50
2023-05-23T08:05:07.297Z,84.50
2023-05-23T08:07:36.180Z,83.50
2023-05-23T08:10:05.063Z,81.40
2023-05-23T08:12:34.047Z,82.90
2023-05-23T08:15:02.694Z,80.30
2023-05-23T08:17:31.401Z,77.50
2023-05-23T08:20:01.494Z,77.90
2023-05-23T08:22:31.786Z,77.50
2023-05-23T08:25:00.539Z,75.20
2023-05-23T08:27:30.447Z,77.40
2023-05-23T08:30:00.062Z,77.90
2023-05-23T08:32:28.937Z,76.00
2023-05-23T08:34:57.613Z,73.70
2023-05-23T08:37:26.524Z,76.20
2023-05-23T08:39:56.721Z,74.80
2023-05-23T08:42:25.621Z,73.30
2023-05-23T08:44:55.023Z,71.30
2023-05-23T08:47:24.166Z,75.20
2023-05-23T08:49:56.631Z,72.80
2023-05-23T08:52:26.884Z,71.60
2023-05-23T08:54:57.107Z,73.60
2023-05-23T08:57:27.068Z,72.20
2023-05-23T08:59:57.161Z,70.70
2023-05-23T09:02:26.904Z,71.40
2023-05-23T09:04:56.073Z,72.00
2023-05-23T09:07:24.874Z,69.60
2023-05-23T09:09:53.660Z,71.70
2023-05-23T09:12:23.827Z,72.50
2023-05-23T09:14:52.985Z,69.70
2023-05-23T09:17:22.712Z,68.10
2023-05-23T09:19:51.960Z,69.00
2023-05-23T09:22:27.255Z,67.50
2023-05-23T09:24:56.910Z,67.90
2023-05-23T09:27:27.230Z,68.80
2023-05-23T09:29:55.849Z,70.30
2023-05-23T09:32:24.565Z,68.10
2023-05-23T09:34:58.418Z,67.30
2023-05-23T09:37:34.343Z,65.00
2023-05-23T09:40:07.820Z,65.00
2023-05-23T09:42:43.219Z,64.00
2023-05-23T09:45:13.024Z,66.00
2023-05-23T09:47:41.793Z,65.20
2023-05-23T09:50:14.898Z,61.40
2023-05-23T09:52:43.405Z,65.00
2023-05-23T09:55:12.854Z,67.50
2023-05-23T09:57:44.286Z,62.60
2023-05-23T10:00:14.415Z,62.20
2023-05-23T10:03:08.375Z,61.90
2023-05-23T10:05:40.139Z,60.70
2023-05-23T10:08:12.404Z,59.30
2023-05-23T10:11:30.162Z,59.80
2023-05-23T10:14:02.482Z,58.30
2023-05-23T10:16:40.522Z,59.20
2023-05-23T10:19:14.838Z,61.30
2023-05-23T10:21:50.598Z,58.70
2023-05-23T10:24:20.419Z,58.30
2023-05-23T10:26:50.392Z,58.20
2023-05-23T10:29:20.659Z,57.80
2023-05-23T10:31:49.913Z,59.00
2023-05-23T10:34:27.048Z,59.80
2023-05-23T10:37:02.115Z,59.00
2023-05-23T10:39:44.712Z,59.80
2023-05-23T10:42:19.174Z,61.10
2023-05-23T10:44:49.243Z,57.30
2023-05-23T10:47:28.338Z,57.80
2023-05-23T10:49:57.523Z,57.70
2023-05-23T10:52:27.935Z,55.60
2023-05-23T10:54:57.555Z,56.30
2023-05-23T10:57:29.097Z,54.90
2023-05-23T10:59:59.151Z,58.20
2023-05-23T11:02:29.697Z,55.80
2023-05-23T11:05:24.023Z,57.50
2023-05-23T11:08:12.242Z,56.60
2023-05-23T11:10:55.703Z,54.70
2023-05-23T11:13:25.265Z,54.80
2023-05-23T11:15:55.450Z,55.60
2023-05-23T11:18:26.186Z,55.00
2023-05-23T11:21:23.892Z,53.90
2023-05-23T11:23:57.080Z,54.20
2023-05-23T11:26:32.509Z,54.60
2023-05-23T11:29:03.493Z,56.30
2023-05-23T11:31:40.735Z,55.40
2023-05-23T11:34:09.474Z,54.80
2023-05-23T11:36:38.886Z,55.00
2023-05-23T11:39:13.572Z,54.80
2023-05-23T11:41:44.734Z,57.30
2023-05-23T11:44:14.184Z,57.20
2023-05-23T11:47:02.161Z,57.40
2023-05-23T11:49:32.887Z,57.30
2023-05-23T11:52:03.187Z,57.50
2023-05-23T11:54:32.325Z,57.60
2023-05-23T11:57:01.048Z,56.40
2023-05-23T11:59:30.112Z,56.60
2023-05-23T12:02:00.159Z,56.00
2023-05-23T12:04:29.460Z,57.30
2023-05-23T12:06:58.217Z,57.00
2023-05-23T12:09:27.059Z,56.40
2023-05-23T12:11:55.846Z,58.50
2023-05-23T12:14:51.588Z,57.00
2023-05-23T12:17:22.704Z,56.30
2023-05-23T12:19:53.117Z,54.80
2023-05-23T12:22:25.928Z,55.90
2023-05-23T12:24:56.216Z,56.10
2023-05-23T12:27:31.792Z,55.80
2023-05-23T12:30:10.826Z,54.50
2023-05-23T12:32:42.272Z,57.10
2023-05-23T12:35:13.430Z,57.10
2023-05-23T12:37:43.183Z,56.40
2023-05-23T12:40:14.735Z,56.10
2023-05-23T12:42:55.871Z,55.90
2023-05-23T12:48:37.520Z,56.30
2023-05-23T12:51:06.892Z,55.70
2023-05-23T12:53:36.778Z,56.10
2023-05-23T12:56:05.665Z,56.50
2023-05-23T12:58:34.656Z,57.20
2023-05-23T13:01:04.457Z,57.70
2023-05-23T13:03:37.659Z,58.00
2023-05-23T13:06:07.507Z,57.00
2023-05-23T13:08:36.249Z,56.20
2023-05-23T13:11:05.730Z,56.60
2023-05-23T13:13:34.394Z,56.50
2023-05-23T13:16:03.483Z,57.40
2023-05-23T13:18:32.421Z,56.40
2023-05-23T13:21:02.623Z,56.50
2023-05-23T13:23:31.201Z,55.70
2023-05-23T13:26:00.163Z,55.80
2023-05-23T13:28:28.957Z,55.40
2023-05-23T13:30:57.664Z,56.40
2023-05-23T13:33:26.415Z,54.80
2023-05-23T13:35:55.121Z,55.40
2023-05-23T13:38:27.911Z,55.20
2023-05-23T13:40:56.769Z,56.00
2023-05-23T13:43:26.012Z,57.40
2023-05-23T13:45:57.614Z,57.40
2023-05-23T13:48:26.730Z,56.40
2023-05-23T13:50:56.706Z,55.50
2023-05-23T13:53:28.011Z,55.10
2023-05-23T13:55:56.924Z,55.60
2023-05-23T13:58:25.769Z,56.20
2023-05-23T14:00:54.761Z,56.20
2023-05-23T14:03:24.868Z,56.90
2023-05-23T14:05:53.864Z,57.00
2023-05-23T14:08:22.816Z,57.30
2023-05-23T14:10:53.479Z,56.70
2023-05-23T14:13:23.418Z,57.30
2023-05-23T14:15:53.651Z,57.80
2023-05-23T14:18:22.604Z,59.40
2023-05-23T14:20:51.426Z,57.30
2023-05-23T14:23:20.103Z,57.00
2023-05-23T14:25:48.978Z,56.20
2023-05-23T14:28:19.304Z,57.30
2023-05-23T14:30:48.248Z,56.70
2023-05-23T14:33:17.204Z,57.00
2023-05-23T14:35:46.180Z,57.50
2023-05-23T14:38:15.309Z,57.00
2023-05-23T14:40:44.619Z,56.90
2023-05-23T14:43:13.818Z,57.50
2023-05-23T14:45:44.340Z,57.10
2023-05-23T14:48:13.368Z,57.70
2023-05-23T14:50:42.853Z,56.80
2023-05-23T14:53:11.558Z,57.10
2023-05-23T14:55:40.556Z,56.20
2023-05-23T14:58:09.514Z,54.80
2023-05-23T15:00:38.714Z,56.00
2023-05-23T15:03:09.067Z,53.70
2023-05-23T15:05:37.868Z,53.40
2023-05-23T15:08:06.794Z,52.60
2023-05-23T15:10:35.734Z,53.40
2023-05-23T15:13:04.779Z,52.80
2023-05-23T15:15:37.702Z,52.80
2023-05-23T15:18:10.486Z,51.20
2023-05-23T15:20:39.462Z,51.80
2023-05-23T15:23:08.355Z,52.10
2023-05-23T15:25:48.037Z,51.00
2023-05-23T15:28:18.504Z,50.90
2023-05-23T15:30:47.467Z,50.90
2023-05-23T15:33:17.728Z,50.80
2023-05-23T15:35:46.669Z,51.30
2023-05-23T15:38:17.105Z,50.00
2023-05-23T15:40:53.027Z,49.20
2023-05-23T15:43:22.274Z,48.50
2023-05-23T15:45:52.795Z,48.80
2023-05-23T15:48:23.311Z,50.70
2023-05-23T15:50:52.390Z,51.30
2023-05-23T15:53:22.885Z,50.20
2023-05-23T15:55:51.838Z,51.50
2023-05-23T15:58:20.660Z,51.40
2023-05-23T16:00:49.337Z,52.30
2023-05-23T16:03:18.099Z,53.00
2023-05-23T16:05:48.505Z,52.50
2023-05-23T16:08:17.164Z,51.30
2023-05-23T16:10:45.835Z,52.40
2023-05-23T16:15:43.431Z,52.40
2023-05-23T16:18:12.238Z,51.40
2023-05-23T16:20:40.948Z,51.20
2023-05-23T16:23:10.954Z,51.80
2023-05-23T16:25:40.154Z,53.40
2023-05-23T16:28:09.031Z,52.70
2023-05-23T16:30:37.659Z,53.80
2023-05-23T16:33:06.927Z,52.90
2023-05-23T16:35:35.816Z,53.80
2023-05-23T16:38:04.440Z,53.50
2023-05-23T16:40:34.496Z,54.20
2023-05-23T16:43:04.374Z,53.10
2023-05-23T16:45:33.271Z,54.80
2023-05-23T16:48:02.251Z,54.60
2023-05-23T16:50:30.973Z,55.20
2023-05-23T16:52:59.592Z,55.40
2023-05-23T16:55:28.152Z,55.60
2023-05-23T16:57:58.460Z,55.80
2023-05-23T17:00:28.757Z,56.00
2023-05-23T17:02:57.416Z,56.00
2023-05-23T17:05:26.999Z,57.30
2023-05-23T17:07:55.796Z,57.30
2023-05-23T17:10:24.458Z,57.10
2023-05-23T17:12:53.027Z,57.70
2023-05-23T17:15:23.091Z,59.70
2023-05-23T17:17:53.847Z,59.30
2023-05-23T17:20:25.482Z,60.00
2023-05-23T17:22:54.201Z,62.80
2023-05-23T17:25:22.960Z,61.60
2023-05-23T17:27:51.729Z,61.30
2023-05-23T17:30:21.067Z,61.20
2023-05-23T17:32:51.620Z,62.40
2023-05-23T17:35:20.609Z,62.70
2023-05-23T17:37:49.276Z,62.90
2023-05-23T17:40:18.066Z,62.90
2023-05-23T17:42:47.186Z,63.00
2023-05-23T17:45:16.200Z,64.00
2023-05-23T17:47:46.297Z,64.90
2023-05-23T17:50:16.916Z,64.90
2023-05-23T17:52:46.127Z,65.70
2023-05-23T17:55:14.815Z,66.00
2023-05-23T17:57:43.600Z,66.30
2023-05-23T18:00:13.489Z,66.60
2023-05-23T18:02:42.175Z,66.70
2023-05-23T18:05:11.536Z,66.90
2023-05-23T18:07:42.951Z,67.30
2023-05-23T18:10:13.069Z,68.00
2023-05-23T18:12:42.176Z,68.30
2023-05-23T18:15:11.533Z,69.40
2023-05-23T18:17:40.337Z,69.20
2023-05-23T18:20:10.216Z,70.20
2023-05-23T18:22:38.887Z,71.80
2023-05-23T18:25:10.125Z,71.50
2023-05-23T18:27:38.747Z,71.60
2023-05-23T18:30:08.774Z,72.30
2023-05-23T18:32:37.437Z,73.00
2023-05-23T18:35:06.951Z,73.40
2023-05-23T18:37:35.785Z,73.60
2023-05-23T18:40:04.528Z,73.90
2023-05-23T18:42:34.512Z,74.50
2023-05-23T18:45:03.186Z,74.70
2023-05-23T18:47:31.945Z,74.90
2023-05-23T18:50:01.215Z,75.30
2023-05-23T18:52:30.949Z,75.50
2023-05-23T18:54:59.562Z,75.90
2023-05-23T18:57:28.923Z,76.20
2023-05-23T18:59:59.201Z,76.30
2023-05-23T19:02:28.239Z,76.60
2023-05-23T19:04:56.865Z,76.90
2023-05-23T19:07:25.656Z,77.20
2023-05-23T19:09:54.341Z,77.20
2023-05-23T19:12:22.985Z,77.90
2023-05-23T19:14:51.609Z,77.90
2023-05-23T19:17:21.624Z,78.00
2023-05-23T19:19:50.440Z,78.40
2023-05-23T19:22:19.020Z,78.90
2023-05-23T19:24:49.514Z,79.30
2023-05-23T19:27:18.219Z,79.40
2023-05-23T19:29:46.859Z,79.80
2023-05-23T19:32:15.760Z,80.10
2023-05-23T19:34:46.759Z,80.70
2023-05-23T19:37:15.836Z,81.30
2023-05-23T19:39:47.035Z,81.60
2023-05-23T19:42:15.649Z,81.60
2023-05-23T19:44:45.121Z,82.30
2023-05-23T19:47:13.732Z,82.00
2023-05-23T19:49:42.302Z,82.50
2023-05-23T19:52:12.358Z,82.60
2023-05-23T19:54:41.233Z,83.10
2023-05-23T19:57:09.874Z,83.50
2023-05-23T19:59:38.543Z,83.80
2023-05-23T20:02:07.237Z,84.30
2023-05-23T20:04:35.917Z,84.70
2023-05-23T20:07:04.823Z,84.50
2023-05-23T20:09:34.929Z,84.60
2023-05-23T20:12:03.641Z,84.70
2023-05-23T20:14:32.811Z,85.20
2023-05-23T20:17:01.513Z,85.30
2023-05-23T20:19:30.254Z,86.00
2023-05-23T20:21:59.006Z,86.20
2023-05-23T20:24:30.578Z,86.60
2023-05-23T20:27:01.014Z,87.30
2023-05-23T20:29:29.877Z,87.60
2023-05-23T20:31:58.955Z,87.90
2023-05-23T20:34:27.566Z,88.00
2023-05-23T20:36:56.197Z,88.50
2023-05-23T20:39:25.407Z,88.40
2023-05-23T20:41:54.967Z,89.00
2023-05-23T20:44:25.092Z,89.20
2023-05-23T20:46:54.391Z,89.90
2023-05-23T20:49:23.616Z,89.90
2023-05-23T20:51:52.299Z,90.10
2023-05-23T20:54:21.439Z,90.40
2023-05-23T20:56:52.824Z,90.70
2023-05-23T20:59:21.513Z,90.80
2023-05-23T21:01:51.865Z,90.80
2023-05-23T21:04:20.595Z,91.10
2023-05-23T21:06:49.440Z,91.20
2023-05-23T21:09:18.350Z,91.40
2023-05-23T21:11:47.343Z,91.40
2023-05-23T21:14:15.998Z,91.60
2023-05-23T21:16:44.907Z,91.80
2023-05-23T21:19:15.451Z,91.80
2023-05-23T21:21:44.492Z,92.00
2023-05-23T21:24:14.495Z,91.90
2023-05-23T21:26:43.804Z,91.90
2023-05-23T21:29:12.591Z,91.90
2023-05-23T21:31:42.124Z,92.20
2023-05-23T21:34:23.262Z,92.20
2023-05-23T21:36:54.903Z,92.40
2023-05-23T21:39:23.551Z,92.60
2023-05-23T21:41:52.557Z,92.90
2023-05-23T21:44:21.469Z,92.80
2023-05-23T21:46:50.289Z,93.10
2023-05-23T21:49:19.187Z,93.30
2023-05-23T21:51:47.902Z,93.10
2023-05-23T21:54:18.058Z,93.40
2023-05-23T21:56:46.869Z,93.30
2023-05-23T21:59:15.653Z,93.30
2023-05-23T22:01:44.298Z,93.50
2023-05-23T22:04:12.908Z,93.50
2023-05-23T22:06:41.359Z,93.30
2023-05-23T22:09:12.637Z,93.60
2023-05-23T22:11:42.810Z,93.70
2023-05-23T22:14:11.896Z,93.80
2023-05-23T22:16:45.989Z,93.80
2023-05-23T22:19:18.197Z,93.80
2023-05-23T22:21:49.582Z,94.20
2023-05-23T22:24:18.178Z,94.20
2023-05-23T22:26:48.118Z,94.00
2023-05-23T22:29:16.696Z,93.90
2023-05-23T22:31:46.940Z,93.70
2023-05-23T22:34:16.257Z,94.20
2023-05-23T22:36:44.984Z,93.80
2023-05-23T22:39:13.884Z,94.10
2023-05-23T22:41:42.521Z,94.30
2023-05-23T22:44:23.679Z,94.20
2023-05-23T22:47:17.770Z,94.30
2023-05-23T22:49:46.562Z,94.30
2023-05-23T22:52:18.341Z,94.20
2023-05-23T22:54:46.970Z,94.30
2023-05-23T22:57:15.396Z,94.60
2023-05-23T22:59:45.308Z,94.50
2023-05-23T23:02:13.802Z,94.50
2023-05-23T23:04:44.415Z,94.60
2023-05-23T23:07:12.934Z,94.90
2023-05-23T23:09:41.387Z,95.10
2023-05-23T23:12:09.871Z,95.10
2023-05-23T23:14:38.353Z,95.30
2023-05-23T23:17:08.317Z,95.20
2023-05-23T23:19:36.773Z,95.30
2023-05-23T23:22:05.598Z,95.40
2023-05-23T23:24:34.129Z,95.50
2023-05-23T23:27:02.626Z,95.40
2023-05-23T23:29:31.500Z,95.60
2023-05-23T23:32:00.126Z,95.80
2023-05-23T23:34:30.265Z,96.00
2023-05-23T23:36:58.968Z,96.00
2023-05-23T23:39:27.548Z,96.30
2023-05-23T23:41:56.160Z,96.30
2023-05-23T23:44:24.742Z,96.60
2023-05-23T23:46:53.401Z,97.00
2023-05-23T23:49:22.162Z,97.30
2023-05-23T23:51:52.963Z,97.30
2023-05-23T23:54:21.609Z,97.40
2023-05-23T23:56:50.275Z,97.30
2023-05-23T23:59:18.911Z,97.60
